Norwegian Queen — WDE5552 — position and weather

sailwx.info

Track history (hours):
 
Tides and Currents Weather Stations Pressure Air Temp Water Temp Dewpoint Dewpoint Depression Visibility Wind Speed Wind Dir Waves Ship Positions

Norwegian Queen

Owner: Norwegian Queen LLC, Boca Raton, FL. More information available from US FCC via Universal Licensing System and Coast Guard Vessel Documentation Center.

Last reported at 2017-Nov-15 19:23 UTC. Time now 2017-Dec-12 02:51 UTC.
Position N 26°20' W 080°05'.
Warning: this ship's position is 26 days out of date.

Length 50 m; draft 2.4 m.

Type: Pleasure craft. MMSI: 367368250.

Date/timePositionNaut miles runAvg speedWind from/ knotsBaromVisibWave heightAir tempDewpointWater temp
2017-Nov-15 19:23N 26°20' W 080°05'1 2.6
2017-Nov-15 19:00N 26°19' W 080°05'3 5.3
2017-Nov-15 18:30N 26°16' W 080°05'2 4.8
2017-Nov-15 18:00N 26°14' W 080°06'3 5.0
2017-Nov-15 17:30N 26°11' W 080°06'3 6.4
2017-Nov-15 17:00N 26°08' W 080°07'1 2.8
2017-Nov-15 16:30N 26°07' W 080°07'4 7.2
2017-Nov-15 16:00N 26°03' W 080°06'713.2
2017-Nov-15 15:30N 25°57' W 080°05'613.0
2017-Nov-15 15:00N 25°50' W 080°05'510.0
2017-Nov-15 14:30N 25°46' W 080°08'3 5.8
2017-Nov-15 14:00N 25°46' W 080°11'0 0.1
2017-Nov-15 13:30N 25°46' W 080°11'0 0.0
2017-Nov-15 13:00N 25°46' W 080°11'0 0.1
2017-Nov-15 12:30N 25°46' W 080°11'0 0.4
2017-Nov-15 12:00N 25°46' W 080°11'0 0.4
2017-Nov-15 11:30N 25°46' W 080°11'0 0.0
2017-Nov-15 11:00N 25°46' W 080°11'0 0.0
2017-Nov-15 10:30N 25°46' W 080°11'0 0.0
2017-Nov-15 10:00N 25°46' W 080°11'0 0.0
2017-Nov-15 09:30N 25°46' W 080°11'0 0.0
2017-Nov-15 09:00N 25°46' W 080°11'0 0.0
2017-Nov-15 08:27N 25°46' W 080°11'0 0.0
2017-Nov-15 08:00N 25°46' W 080°11'0 0.0
2017-Nov-15 07:30N 25°46' W 080°11'0 0.0
2017-Nov-15 07:00N 25°46' W 080°11'0 0.0
2017-Nov-15 06:27N 25°46' W 080°11'0 0.0
2017-Nov-15 06:00N 25°46' W 080°11'0 0.0
2017-Nov-15 05:30N 25°46' W 080°11'0 0.0
2017-Nov-15 04:54N 25°46' W 080°11'0 0.0
2017-Nov-15 04:30N 25°46' W 080°11'0 0.0
2017-Nov-15 04:00N 25°46' W 080°11'0 0.0
2017-Nov-15 03:30N 25°46' W 080°11'0 0.0
2017-Nov-15 03:00N 25°46' W 080°11'0 0.0
2017-Nov-15 02:27N 25°46' W 080°11'0 0.0
2017-Nov-15 02:00N 25°46' W 080°11'0 0.0
2017-Nov-15 01:30N 25°46' W 080°11'0 0.0
2017-Nov-15 01:00N 25°46' W 080°11'0 0.0
2017-Nov-15 00:30N 25°46' W 080°11'0 0.0
2017-Nov-15 00:00N 25°46' W 080°11'0 0.1
2017-Nov-14 23:30N 25°46' W 080°11'0 0.1
2017-Nov-14 23:00N 25°46' W 080°11'0 0.0
2017-Nov-14 22:30N 25°46' W 080°11'0 0.0
2017-Nov-14 22:00N 25°46' W 080°11'0 0.0
2017-Nov-14 21:30N 25°46' W 080°11'0 0.1
2017-Nov-14 21:00N 25°46' W 080°11'0 0.1
2017-Nov-14 20:30N 25°46' W 080°11'0 0.0
2017-Nov-14 20:00N 25°46' W 080°11'0 0.0
2017-Nov-14 19:12N 25°46' W 080°11'0 0.0
2017-Nov-14 19:00N 25°46' W 080°11'0 0.0
2017-Nov-14 18:30N 25°46' W 080°11'0 0.0
2017-Nov-14 18:00N 25°46' W 080°11'0 0.1
2017-Nov-14 17:21N 25°46' W 080°11'0 0.2
2017-Nov-14 17:00N 25°46' W 080°11'0 0.0
2017-Nov-14 16:30N 25°46' W 080°11'0 0.0
2017-Nov-14 16:00N 25°46' W 080°11'0 0.0
2017-Nov-14 15:27N 25°46' W 080°11'0 0.0
2017-Nov-14 15:00N 25°46' W 080°11'0 0.0
2017-Nov-14 14:27N 25°46' W 080°11'0 0.0
2017-Nov-14 14:00N 25°46' W 080°11'0 0.0
2017-Nov-14 13:24N 25°46' W 080°11'0 0.0
2017-Nov-14 12:57N 25°46' W 080°11'0 0.0
2017-Nov-14 12:30N 25°46' W 080°11'0 0.0
2017-Nov-14 12:00N 25°46' W 080°11'0 0.1
2017-Nov-14 11:30N 25°46' W 080°11'0 0.0
2017-Nov-14 11:00N 25°46' W 080°11'0 0.0
2017-Nov-14 10:30N 25°46' W 080°11'0 0.1
2017-Nov-14 10:00N 25°46' W 080°11'0 0.0
2017-Nov-14 09:30N 25°46' W 080°11'0 0.0
2017-Nov-14 09:00N 25°46' W 080°11'0 0.0
2017-Nov-14 08:30N 25°46' W 080°11'0 0.0
2017-Nov-14 08:00N 25°46' W 080°11'0 0.0
2017-Nov-14 07:24N 25°46' W 080°11'0 0.0
2017-Nov-14 07:00N 25°46' W 080°11'0 0.0
2017-Nov-14 06:30N 25°46' W 080°11'0 0.0
2017-Nov-14 06:00N 25°46' W 080°11'0 0.0
2017-Nov-14 05:30N 25°46' W 080°11'0 0.0
2017-Nov-14 05:00N 25°46' W 080°11'0 0.0
2017-Nov-14 04:30N 25°46' W 080°11'0 0.0
2017-Nov-14 03:54N 25°46' W 080°11'0 0.0
2017-Nov-14 03:30N 25°46' W 080°11'0 0.0
2017-Nov-14 02:57N 25°46' W 080°11'0 0.0
2017-Nov-14 02:24N 25°46' W 080°11'0 0.1
2017-Nov-14 01:57N 25°46' W 080°11'0 0.1
2017-Nov-14 01:30N 25°46' W 080°11'0 0.0
2017-Nov-14 01:00N 25°46' W 080°11'0 0.0
2017-Nov-14 00:27N 25°46' W 080°11'0 0.0
2017-Nov-14 00:00N 25°46' W 080°11'0 0.1
2017-Nov-13 23:27N 25°46' W 080°11'0 0.1
2017-Nov-13 22:59N 25°46' W 080°11'0 0.0
2017-Nov-13 22:29N 25°46' W 080°11'0 0.0
2017-Nov-13 21:59N 25°46' W 080°11'0 0.0
2017-Nov-13 01:58N 25°46' W 080°11'0 0.0
2017-Nov-13 01:28N 25°46' W 080°11'0 0.0
2017-Nov-13 00:55N 25°46' W 080°11'0 0.0
2017-Nov-13 00:25N 25°46' W 080°11'0 0.0
2017-Nov-12 23:58N 25°46' W 080°11'0 0.0
2017-Nov-12 23:30N 25°46' W 080°11'0 0.0
2017-Nov-12 22:58N 25°46' W 080°11'0 0.0
2017-Nov-12 22:28N 25°46' W 080°11'0 0.0
2017-Nov-12 21:58N 25°46' W 080°11'0 0.0
2017-Nov-12 21:25N 25°46' W 080°11'0 0.0
2017-Nov-12 20:58N 25°46' W 080°11'0 0.0
2017-Nov-12 20:28N 25°46' W 080°11'0 0.0
2017-Nov-12 19:59N 25°46' W 080°11'0 0.0
2017-Nov-12 19:29N 25°46' W 080°11'0 0.0
2017-Nov-12 18:59N 25°46' W 080°11'0 0.0
2017-Nov-12 18:30N 25°46' W 080°11'0 0.0
2017-Nov-12 18:01N 25°46' W 080°11'0 0.0
2017-Nov-12 17:28N 25°46' W 080°11'0 0.0
2017-Nov-12 17:01N 25°46' W 080°11'1 2.5
2017-Nov-12 16:31N 25°46' W 080°10'1 2.4
2017-Nov-12 15:57N 25°45' W 080°09'0 0.0
2017-Nov-12 15:30N 25°45' W 080°09'0 0.0
2017-Nov-12 15:00N 25°45' W 080°09'0 0.0
2017-Nov-12 14:30N 25°45' W 080°09'0 0.0
2017-Nov-12 14:00N 25°45' W 080°09'0 0.0
2017-Nov-12 13:30N 25°45' W 080°09'0 0.0
2017-Nov-12 12:57N 25°45' W 080°09'0 0.0
2017-Nov-12 12:27N 25°45' W 080°09'0 0.0
2017-Nov-12 12:00N 25°45' W 080°09'0 0.0
2017-Nov-12 11:30N 25°45' W 080°09'0 0.0
2017-Nov-12 11:00N 25°45' W 080°09'0 0.0
2017-Nov-12 10:30N 25°45' W 080°09'0 0.0
2017-Nov-12 10:00N 25°45' W 080°09'0 0.0
2017-Nov-12 09:30N 25°45' W 080°09'0 0.0
2017-Nov-12 08:57N 25°45' W 080°09'0 0.0
2017-Nov-12 08:30N 25°45' W 080°09'0 0.0
2017-Nov-12 08:00N 25°45' W 080°09'0 0.0
2017-Nov-12 07:30N 25°45' W 080°09'0 0.0
2017-Nov-12 07:00N 25°45' W 080°09'0 0.0
2017-Nov-12 06:27N 25°45' W 080°09'0 0.0
2017-Nov-12 06:00N 25°45' W 080°09'0 0.0
2017-Nov-12 05:30N 25°45' W 080°09'0 0.0
2017-Nov-12 04:57N 25°45' W 080°09'0 0.0
2017-Nov-12 04:30N 25°45' W 080°09'0 0.0
2017-Nov-12 03:57N 25°45' W 080°09'0 0.0
2017-Nov-12 03:30N 25°45' W 080°09'0 0.0
2017-Nov-12 03:00N 25°45' W 080°09'0 0.0
2017-Nov-12 02:27N 25°45' W 080°09'0 0.0
2017-Nov-12 01:54N 25°45' W 080°09'0 0.0
2017-Nov-12 01:27N 25°45' W 080°09'0 0.0
2017-Nov-12 00:57N 25°45' W 080°09'0 0.0
2017-Nov-12 00:30N 25°45' W 080°09'0 0.0
2017-Nov-12 00:00N 25°45' W 080°09'0 0.0
2017-Nov-11 23:27N 25°45' W 080°09'0 0.0
2017-Nov-11 23:00N 25°45' W 080°09'0 0.0
2017-Nov-11 22:27N 25°45' W 080°09'0 0.0
2017-Nov-11 22:00N 25°45' W 080°09'0 0.0
2017-Nov-11 21:30N 25°45' W 080°09'0 0.0
2017-Nov-11 21:00N 25°45' W 080°09'0 0.0
2017-Nov-11 20:30N 25°45' W 080°09'0 0.0
2017-Nov-11 20:00N 25°45' W 080°09'0 0.0
2017-Nov-11 19:30N 25°45' W 080°09'0 0.0
2017-Nov-11 19:00N 25°45' W 080°09'0 0.0
2017-Nov-11 18:30N 25°45' W 080°09'0 0.0
2017-Nov-11 18:00N 25°45' W 080°09'0 0.0
2017-Nov-11 17:30N 25°45' W 080°09'0 0.0
2017-Nov-11 17:00N 25°45' W 080°09'0 0.0
2017-Nov-11 16:30N 25°45' W 080°09'0 0.0
2017-Nov-11 16:00N 25°45' W 080°09'0 0.0
2017-Nov-11 15:30N 25°45' W 080°09'0 0.0
2017-Nov-11 15:00N 25°45' W 080°09'0 0.0
2017-Nov-11 14:30N 25°45' W 080°09'0 0.0
2017-Nov-11 14:00N 25°45' W 080°09'0 0.0
2017-Nov-11 13:30N 25°45' W 080°09'0 0.0
2017-Nov-11 13:00N 25°45' W 080°09'0 0.0
2017-Nov-11 12:30N 25°45' W 080°09'0 0.0
2017-Nov-11 12:00N 25°45' W 080°09'0 0.0
2017-Nov-11 11:27N 25°45' W 080°09'0 0.0
2017-Nov-11 11:00N 25°45' W 080°09'0 0.0
2017-Nov-11 10:30N 25°45' W 080°09'0 0.0
2017-Nov-11 10:00N 25°45' W 080°09'0 0.0
2017-Nov-11 09:27N 25°45' W 080°09'0 0.0
2017-Nov-11 09:00N 25°45' W 080°09'0 0.0
2017-Nov-11 08:30N 25°45' W 080°09'0 0.0
2017-Nov-11 07:57N 25°45' W 080°09'0 0.0
2017-Nov-11 07:30N 25°45' W 080°09'0 0.0
2017-Nov-11 07:00N 25°45' W 080°09'0 0.0
2017-Nov-11 06:30N 25°45' W 080°09'0 0.0
2017-Nov-11 06:00N 25°45' W 080°09'0 0.0
2017-Nov-11 05:30N 25°45' W 080°09'0 0.0
2017-Nov-11 05:00N 25°45' W 080°09'0 0.0
2017-Nov-11 04:30N 25°45' W 080°09'0 0.0
2017-Nov-11 04:00N 25°45' W 080°09'0 0.0
2017-Nov-11 03:30N 25°45' W 080°09'0 0.0
2017-Nov-11 03:00N 25°45' W 080°09'0 0.0
2017-Nov-11 02:27N 25°45' W 080°09'0 0.0
2017-Nov-11 02:00N 25°45' W 080°09'0 0.0
2017-Nov-11 01:30N 25°45' W 080°09'0 0.0
2017-Nov-11 01:00N 25°45' W 080°09'0 0.0
2017-Nov-11 00:30N 25°45' W 080°09'0 0.0
2017-Nov-11 00:00N 25°45' W 080°09'0 0.0
2017-Nov-10 23:30N 25°45' W 080°09'0 0.0
2017-Nov-10 23:00N 25°45' W 080°09'0 0.0
2017-Nov-10 22:30N 25°45' W 080°09'0 0.0
2017-Nov-10 22:00N 25°45' W 080°09'0 0.0
2017-Nov-10 21:30N 25°45' W 080°09'0 0.0
2017-Nov-10 21:00N 25°45' W 080°09'0 0.0
2017-Nov-10 20:30N 25°45' W 080°09'0 0.0
2017-Nov-10 20:00N 25°45' W 080°09'0 0.0
2017-Nov-10 19:30N 25°45' W 080°09'0 0.0
2017-Nov-10 19:00N 25°45' W 080°09'0 0.0
2017-Nov-10 18:30N 25°45' W 080°09'0 0.0
2017-Nov-10 18:00N 25°45' W 080°09'0 0.0
2017-Nov-10 17:30N 25°45' W 080°09'0 0.0
2017-Nov-10 17:00N 25°45' W 080°09'0 0.0
2017-Nov-10 16:30N 25°45' W 080°09'0 0.0
2017-Nov-10 16:00N 25°45' W 080°09'0 0.0
2017-Nov-10 15:30N 25°45' W 080°09'0 0.0
2017-Nov-10 15:00N 25°45' W 080°09'0 0.0
2017-Nov-10 14:30N 25°45' W 080°09'0 0.0
2017-Nov-10 14:00N 25°45' W 080°09'0 0.0
2017-Nov-10 13:30N 25°45' W 080°09'0 0.0
2017-Nov-10 13:00N 25°45' W 080°09'0 0.0
2017-Nov-10 12:30N 25°45' W 080°09'0 0.0
2017-Nov-10 12:00N 25°45' W 080°09'0 0.0
2017-Nov-10 11:30N 25°45' W 080°09'0 0.0
2017-Nov-10 11:00N 25°45' W 080°09'0 0.0
2017-Nov-10 10:30N 25°45' W 080°09'0 0.0
2017-Nov-10 10:00N 25°45' W 080°09'0 0.0
2017-Nov-10 09:30N 25°45' W 080°09'0 0.0
2017-Nov-10 09:00N 25°45' W 080°09'0 0.0
2017-Nov-10 08:30N 25°45' W 080°09'0 0.0
2017-Nov-10 08:00N 25°45' W 080°09'0 0.0
2017-Nov-10 07:30N 25°45' W 080°09'0 0.0
2017-Nov-10 07:00N 25°45' W 080°09'0 0.0
2017-Nov-10 06:30N 25°45' W 080°09'0 0.0
2017-Nov-10 06:00N 25°45' W 080°09'0 0.0
2017-Nov-10 05:27N 25°45' W 080°09'0 0.0
2017-Nov-10 05:00N 25°45' W 080°09'0 0.0
2017-Nov-10 04:30N 25°45' W 080°09'0 0.0
2017-Nov-10 04:00N 25°45' W 080°09'0 0.0
2017-Nov-10 03:30N 25°45' W 080°09'0 0.0
2017-Nov-10 03:00N 25°45' W 080°09'0 0.0
2017-Nov-10 02:27N 25°45' W 080°09'0 0.0
2017-Nov-10 02:00N 25°45' W 080°09'0 0.0
2017-Nov-10 01:30N 25°45' W 080°09'0 0.0
2017-Nov-10 01:00N 25°45' W 080°09'0 0.0
2017-Nov-10 00:30N 25°45' W 080°09'0 0.0
2017-Nov-10 00:00N 25°45' W 080°09'0 0.0
2017-Nov-09 23:30N 25°45' W 080°09'0 0.0
2017-Nov-09 23:00N 25°45' W 080°09'0 0.0
2017-Nov-09 22:30N 25°45' W 080°09'0 0.0
2017-Nov-09 22:00N 25°45' W 080°09'0 0.0
2017-Nov-09 21:30N 25°45' W 080°09'0 0.0
2017-Nov-09 21:00N 25°45' W 080°09'0 0.0
2017-Nov-09 20:27N 25°45' W 080°09'0 0.0
2017-Nov-09 20:00N 25°45' W 080°09'0 0.0
2017-Nov-09 19:30N 25°45' W 080°09'0 0.0
2017-Nov-09 19:00N 25°45' W 080°09'0 0.0
2017-Nov-09 18:30N 25°45' W 080°09'0 0.0
2017-Nov-09 18:00N 25°45' W 080°09'0 0.0
2017-Nov-09 17:30N 25°45' W 080°09'0 0.0
2017-Nov-09 17:00N 25°45' W 080°09'0 0.0
2017-Nov-09 16:21N 25°45' W 080°09'0 0.0
2017-Nov-09 16:00N 25°45' W 080°09'0 0.0
2017-Nov-09 15:30N 25°45' W 080°09'0 0.0
2017-Nov-09 15:00N 25°45' W 080°09'0 0.0
2017-Nov-09 14:30N 25°45' W 080°09'0 0.0
2017-Nov-09 13:57N 25°45' W 080°09'0 0.0
2017-Nov-09 13:24N 25°45' W 080°09'0 0.0
2017-Nov-09 13:00N 25°45' W 080°09'0 0.0
2017-Nov-09 12:27N 25°45' W 080°09'0 0.0
2017-Nov-09 11:57N 25°45' W 080°09'0 0.0
2017-Nov-09 11:27N 25°45' W 080°09'0 0.0
2017-Nov-09 11:00N 25°45' W 080°09'0 0.0
2017-Nov-09 10:30N 25°45' W 080°09'0 0.0
2017-Nov-09 10:00N 25°45' W 080°09'0 0.0
2017-Nov-09 09:27N 25°45' W 080°09'0 0.0
2017-Nov-09 09:00N 25°45' W 080°09'0 0.0
2017-Nov-09 08:30N 25°45' W 080°09'0 0.0
2017-Nov-09 08:00N 25°45' W 080°09'0 0.0
2017-Nov-09 07:30N 25°45' W 080°09'0 0.0
2017-Nov-09 07:00N 25°45' W 080°09'0 0.0
2017-Nov-09 06:30N 25°45' W 080°09'0 0.0
2017-Nov-09 06:00N 25°45' W 080°09'0 0.0
2017-Nov-09 05:30N 25°45' W 080°09'0 0.0
2017-Nov-09 05:00N 25°45' W 080°09'0 0.0
2017-Nov-09 04:30N 25°45' W 080°09'0 0.0
2017-Nov-09 03:57N 25°45' W 080°09'0 0.0
2017-Nov-09 03:30N 25°45' W 080°09'0 0.0
2017-Nov-09 03:00N 25°45' W 080°09'0 0.0
2017-Nov-09 02:27N 25°45' W 080°09'0 0.0
2017-Nov-09 01:57N 25°45' W 080°09'0 0.0
2017-Nov-09 01:30N 25°45' W 080°09'0 0.0
2017-Nov-09 01:00N 25°45' W 080°09'0 0.0
2017-Nov-09 00:30N 25°45' W 080°09'0 0.0
2017-Nov-08 23:54N 25°45' W 080°09'0 0.0
2017-Nov-08 23:30N 25°45' W 080°09'0 0.0
2017-Nov-08 23:00N 25°45' W 080°09'0 0.0
2017-Nov-08 22:30N 25°45' W 080°09'0 0.0
2017-Nov-08 22:00N 25°45' W 080°09'0 0.0
2017-Nov-08 21:27N 25°45' W 080°09'0 0.0
2017-Nov-08 20:57N 25°45' W 080°09'0 0.0
2017-Nov-08 20:30N 25°45' W 080°09'0 0.0
2017-Nov-08 20:00N 25°45' W 080°09'0 0.0
2017-Nov-08 19:30N 25°45' W 080°09'0 0.0
2017-Nov-08 18:57N 25°45' W 080°09'0 0.4
2017-Nov-08 18:30N 25°46' W 080°09'3 5.5
2017-Nov-08 18:00N 25°46' W 080°06'815.7
2017-Nov-08 17:30N 25°54' W 080°06'816.6
2017-Nov-08 17:00N 26°02' W 080°06'5 9.5
2017-Nov-08 16:31N 26°07' W 080°07'2 3.9
2017-Nov-08 16:00N 26°09' W 080°06'3 6.1
2017-Nov-08 15:30N 26°12' W 080°06'3 5.1
2017-Nov-08 15:00N 26°14' W 080°06'2 4.0
2017-Nov-08 14:30N 26°16' W 080°05'3 6.0
2017-Nov-08 14:00N 26°19' W 080°05'  
Track history (hours):
 
Tides and Currents Weather Stations Pressure Air Temp Water Temp Dewpoint Dewpoint Depression Visibility Wind Speed Wind Dir Waves Ship Positions

Norwegian Queen

Owner: Norwegian Queen LLC, Boca Raton, FL. More information available from US FCC via Universal Licensing System and Coast Guard Vessel Documentation Center.

Last reported at 2017-Nov-15 19:23 UTC. Time now 2017-Dec-12 02:51 UTC.
Position N 26°20' W 080°05'.
Warning: this ship's position is 26 days out of date.

Length 50 m; draft 2.4 m.

Type: Pleasure craft. MMSI: 367368250.

Date/timePositionNaut miles runAvg speedWind from/ knotsBaromVisibWave heightAir tempDewpointWater temp
2017-Nov-15 19:23N 26°20' W 080°05'1 2.6
2017-Nov-15 19:00N 26°19' W 080°05'3 5.3
2017-Nov-15 18:30N 26°16' W 080°05'2 4.8
2017-Nov-15 18:00N 26°14' W 080°06'3 5.0
2017-Nov-15 17:30N 26°11' W 080°06'3 6.4
2017-Nov-15 17:00N 26°08' W 080°07'1 2.8
2017-Nov-15 16:30N 26°07' W 080°07'4 7.2
2017-Nov-15 16:00N 26°03' W 080°06'713.2
2017-Nov-15 15:30N 25°57' W 080°05'613.0
2017-Nov-15 15:00N 25°50' W 080°05'510.0
2017-Nov-15 14:30N 25°46' W 080°08'3 5.8
2017-Nov-15 14:00N 25°46' W 080°11'0 0.1
2017-Nov-15 13:30N 25°46' W 080°11'0 0.0
2017-Nov-15 13:00N 25°46' W 080°11'0 0.1
2017-Nov-15 12:30N 25°46' W 080°11'0 0.4
2017-Nov-15 12:00N 25°46' W 080°11'0 0.4
2017-Nov-15 11:30N 25°46' W 080°11'0 0.0
2017-Nov-15 11:00N 25°46' W 080°11'0 0.0
2017-Nov-15 10:30N 25°46' W 080°11'0 0.0
2017-Nov-15 10:00N 25°46' W 080°11'0 0.0
2017-Nov-15 09:30N 25°46' W 080°11'0 0.0
2017-Nov-15 09:00N 25°46' W 080°11'0 0.0
2017-Nov-15 08:27N 25°46' W 080°11'0 0.0
2017-Nov-15 08:00N 25°46' W 080°11'0 0.0
2017-Nov-15 07:30N 25°46' W 080°11'0 0.0
2017-Nov-15 07:00N 25°46' W 080°11'0 0.0
2017-Nov-15 06:27N 25°46' W 080°11'0 0.0
2017-Nov-15 06:00N 25°46' W 080°11'0 0.0
2017-Nov-15 05:30N 25°46' W 080°11'0 0.0
2017-Nov-15 04:54N 25°46' W 080°11'0 0.0
2017-Nov-15 04:30N 25°46' W 080°11'0 0.0
2017-Nov-15 04:00N 25°46' W 080°11'0 0.0
2017-Nov-15 03:30N 25°46' W 080°11'0 0.0
2017-Nov-15 03:00N 25°46' W 080°11'0 0.0
2017-Nov-15 02:27N 25°46' W 080°11'0 0.0
2017-Nov-15 02:00N 25°46' W 080°11'0 0.0
2017-Nov-15 01:30N 25°46' W 080°11'0 0.0
2017-Nov-15 01:00N 25°46' W 080°11'0 0.0
2017-Nov-15 00:30N 25°46' W 080°11'0 0.0
2017-Nov-15 00:00N 25°46' W 080°11'0 0.1
2017-Nov-14 23:30N 25°46' W 080°11'0 0.1
2017-Nov-14 23:00N 25°46' W 080°11'0 0.0
2017-Nov-14 22:30N 25°46' W 080°11'0 0.0
2017-Nov-14 22:00N 25°46' W 080°11'0 0.0
2017-Nov-14 21:30N 25°46' W 080°11'0 0.1
2017-Nov-14 21:00N 25°46' W 080°11'0 0.1
2017-Nov-14 20:30N 25°46' W 080°11'0 0.0
2017-Nov-14 20:00N 25°46' W 080°11'0 0.0
2017-Nov-14 19:12N 25°46' W 080°11'0 0.0
2017-Nov-14 19:00N 25°46' W 080°11'0 0.0
2017-Nov-14 18:30N 25°46' W 080°11'0 0.0
2017-Nov-14 18:00N 25°46' W 080°11'0 0.1
2017-Nov-14 17:21N 25°46' W 080°11'0 0.2
2017-Nov-14 17:00N 25°46' W 080°11'0 0.0
2017-Nov-14 16:30N 25°46' W 080°11'0 0.0
2017-Nov-14 16:00N 25°46' W 080°11'0 0.0
2017-Nov-14 15:27N 25°46' W 080°11'0 0.0
2017-Nov-14 15:00N 25°46' W 080°11'0 0.0
2017-Nov-14 14:27N 25°46' W 080°11'0 0.0
2017-Nov-14 14:00N 25°46' W 080°11'0 0.0
2017-Nov-14 13:24N 25°46' W 080°11'0 0.0
2017-Nov-14 12:57N 25°46' W 080°11'0 0.0
2017-Nov-14 12:30N 25°46' W 080°11'0 0.0
2017-Nov-14 12:00N 25°46' W 080°11'0 0.1
2017-Nov-14 11:30N 25°46' W 080°11'0 0.0
2017-Nov-14 11:00N 25°46' W 080°11'0 0.0
2017-Nov-14 10:30N 25°46' W 080°11'0 0.1
2017-Nov-14 10:00N 25°46' W 080°11'0 0.0
2017-Nov-14 09:30N 25°46' W 080°11'0 0.0
2017-Nov-14 09:00N 25°46' W 080°11'0 0.0
2017-Nov-14 08:30N 25°46' W 080°11'0 0.0
2017-Nov-14 08:00N 25°46' W 080°11'0 0.0
2017-Nov-14 07:24N 25°46' W 080°11'0 0.0
2017-Nov-14 07:00N 25°46' W 080°11'0 0.0
2017-Nov-14 06:30N 25°46' W 080°11'0 0.0
2017-Nov-14 06:00N 25°46' W 080°11'0 0.0
2017-Nov-14 05:30N 25°46' W 080°11'0 0.0
2017-Nov-14 05:00N 25°46' W 080°11'0 0.0
2017-Nov-14 04:30N 25°46' W 080°11'0 0.0
2017-Nov-14 03:54N 25°46' W 080°11'0 0.0
2017-Nov-14 03:30N 25°46' W 080°11'0 0.0
2017-Nov-14 02:57N 25°46' W 080°11'0 0.0
2017-Nov-14 02:24N 25°46' W 080°11'0 0.1
2017-Nov-14 01:57N 25°46' W 080°11'0 0.1
2017-Nov-14 01:30N 25°46' W 080°11'0 0.0
2017-Nov-14 01:00N 25°46' W 080°11'0 0.0
2017-Nov-14 00:27N 25°46' W 080°11'0 0.0
2017-Nov-14 00:00N 25°46' W 080°11'0 0.1
2017-Nov-13 23:27N 25°46' W 080°11'0 0.1
2017-Nov-13 22:59N 25°46' W 080°11'0 0.0
2017-Nov-13 22:29N 25°46' W 080°11'0 0.0
2017-Nov-13 21:59N 25°46' W 080°11'0 0.0
2017-Nov-13 01:58N 25°46' W 080°11'0 0.0
2017-Nov-13 01:28N 25°46' W 080°11'0 0.0
2017-Nov-13 00:55N 25°46' W 080°11'0 0.0
2017-Nov-13 00:25N 25°46' W 080°11'0 0.0
2017-Nov-12 23:58N 25°46' W 080°11'0 0.0
2017-Nov-12 23:30N 25°46' W 080°11'0 0.0
2017-Nov-12 22:58N 25°46' W 080°11'0 0.0
2017-Nov-12 22:28N 25°46' W 080°11'0 0.0
2017-Nov-12 21:58N 25°46' W 080°11'0 0.0
2017-Nov-12 21:25N 25°46' W 080°11'0 0.0
2017-Nov-12 20:58N 25°46' W 080°11'0 0.0
2017-Nov-12 20:28N 25°46' W 080°11'0 0.0
2017-Nov-12 19:59N 25°46' W 080°11'0 0.0
2017-Nov-12 19:29N 25°46' W 080°11'0 0.0
2017-Nov-12 18:59N 25°46' W 080°11'0 0.0
2017-Nov-12 18:30N 25°46' W 080°11'0 0.0
2017-Nov-12 18:01N 25°46' W 080°11'0 0.0
2017-Nov-12 17:28N 25°46' W 080°11'0 0.0
2017-Nov-12 17:01N 25°46' W 080°11'1 2.5
2017-Nov-12 16:31N 25°46' W 080°10'1 2.4
2017-Nov-12 15:57N 25°45' W 080°09'0 0.0
2017-Nov-12 15:30N 25°45' W 080°09'0 0.0
2017-Nov-12 15:00N 25°45' W 080°09'0 0.0
2017-Nov-12 14:30N 25°45' W 080°09'0 0.0
2017-Nov-12 14:00N 25°45' W 080°09'0 0.0
2017-Nov-12 13:30N 25°45' W 080°09'0 0.0
2017-Nov-12 12:57N 25°45' W 080°09'0 0.0
2017-Nov-12 12:27N 25°45' W 080°09'0 0.0
2017-Nov-12 12:00N 25°45' W 080°09'0 0.0
2017-Nov-12 11:30N 25°45' W 080°09'0 0.0
2017-Nov-12 11:00N 25°45' W 080°09'0 0.0
2017-Nov-12 10:30N 25°45' W 080°09'0 0.0
2017-Nov-12 10:00N 25°45' W 080°09'0 0.0
2017-Nov-12 09:30N 25°45' W 080°09'0 0.0
2017-Nov-12 08:57N 25°45' W 080°09'0 0.0
2017-Nov-12 08:30N 25°45' W 080°09'0 0.0
2017-Nov-12 08:00N 25°45' W 080°09'0 0.0
2017-Nov-12 07:30N 25°45' W 080°09'0 0.0
2017-Nov-12 07:00N 25°45' W 080°09'0 0.0
2017-Nov-12 06:27N 25°45' W 080°09'0 0.0
2017-Nov-12 06:00N 25°45' W 080°09'0 0.0
2017-Nov-12 05:30N 25°45' W 080°09'0 0.0
2017-Nov-12 04:57N 25°45' W 080°09'0 0.0
2017-Nov-12 04:30N 25°45' W 080°09'0 0.0
2017-Nov-12 03:57N 25°45' W 080°09'0 0.0
2017-Nov-12 03:30N 25°45' W 080°09'0 0.0
2017-Nov-12 03:00N 25°45' W 080°09'0 0.0
2017-Nov-12 02:27N 25°45' W 080°09'0 0.0
2017-Nov-12 01:54N 25°45' W 080°09'0 0.0
2017-Nov-12 01:27N 25°45' W 080°09'0 0.0
2017-Nov-12 00:57N 25°45' W 080°09'0 0.0
2017-Nov-12 00:30N 25°45' W 080°09'0 0.0
2017-Nov-12 00:00N 25°45' W 080°09'0 0.0
2017-Nov-11 23:27N 25°45' W 080°09'0 0.0
2017-Nov-11 23:00N 25°45' W 080°09'0 0.0
2017-Nov-11 22:27N 25°45' W 080°09'0 0.0
2017-Nov-11 22:00N 25°45' W 080°09'0 0.0
2017-Nov-11 21:30N 25°45' W 080°09'0 0.0
2017-Nov-11 21:00N 25°45' W 080°09'0 0.0
2017-Nov-11 20:30N 25°45' W 080°09'0 0.0
2017-Nov-11 20:00N 25°45' W 080°09'0 0.0
2017-Nov-11 19:30N 25°45' W 080°09'0 0.0
2017-Nov-11 19:00N 25°45' W 080°09'0 0.0
2017-Nov-11 18:30N 25°45' W 080°09'0 0.0
2017-Nov-11 18:00N 25°45' W 080°09'0 0.0
2017-Nov-11 17:30N 25°45' W 080°09'0 0.0
2017-Nov-11 17:00N 25°45' W 080°09'0 0.0
2017-Nov-11 16:30N 25°45' W 080°09'0 0.0
2017-Nov-11 16:00N 25°45' W 080°09'0 0.0
2017-Nov-11 15:30N 25°45' W 080°09'0 0.0
2017-Nov-11 15:00N 25°45' W 080°09'0 0.0
2017-Nov-11 14:30N 25°45' W 080°09'0 0.0
2017-Nov-11 14:00N 25°45' W 080°09'0 0.0
2017-Nov-11 13:30N 25°45' W 080°09'0 0.0
2017-Nov-11 13:00N 25°45' W 080°09'0 0.0
2017-Nov-11 12:30N 25°45' W 080°09'0 0.0
2017-Nov-11 12:00N 25°45' W 080°09'0 0.0
2017-Nov-11 11:27N 25°45' W 080°09'0 0.0
2017-Nov-11 11:00N 25°45' W 080°09'0 0.0
2017-Nov-11 10:30N 25°45' W 080°09'0 0.0
2017-Nov-11 10:00N 25°45' W 080°09'0 0.0
2017-Nov-11 09:27N 25°45' W 080°09'0 0.0
2017-Nov-11 09:00N 25°45' W 080°09'0 0.0
2017-Nov-11 08:30N 25°45' W 080°09'0 0.0
2017-Nov-11 07:57N 25°45' W 080°09'0 0.0
2017-Nov-11 07:30N 25°45' W 080°09'0 0.0
2017-Nov-11 07:00N 25°45' W 080°09'0 0.0
2017-Nov-11 06:30N 25°45' W 080°09'0 0.0
2017-Nov-11 06:00N 25°45' W 080°09'0 0.0
2017-Nov-11 05:30N 25°45' W 080°09'0 0.0
2017-Nov-11 05:00N 25°45' W 080°09'0 0.0
2017-Nov-11 04:30N 25°45' W 080°09'0 0.0
2017-Nov-11 04:00N 25°45' W 080°09'0 0.0
2017-Nov-11 03:30N 25°45' W 080°09'0 0.0
2017-Nov-11 03:00N 25°45' W 080°09'0 0.0
2017-Nov-11 02:27N 25°45' W 080°09'0 0.0
2017-Nov-11 02:00N 25°45' W 080°09'0 0.0
2017-Nov-11 01:30N 25°45' W 080°09'0 0.0
2017-Nov-11 01:00N 25°45' W 080°09'0 0.0
2017-Nov-11 00:30N 25°45' W 080°09'0 0.0
2017-Nov-11 00:00N 25°45' W 080°09'0 0.0
2017-Nov-10 23:30N 25°45' W 080°09'0 0.0
2017-Nov-10 23:00N 25°45' W 080°09'0 0.0
2017-Nov-10 22:30N 25°45' W 080°09'0 0.0
2017-Nov-10 22:00N 25°45' W 080°09'0 0.0
2017-Nov-10 21:30N 25°45' W 080°09'0 0.0
2017-Nov-10 21:00N 25°45' W 080°09'0 0.0
2017-Nov-10 20:30N 25°45' W 080°09'0 0.0
2017-Nov-10 20:00N 25°45' W 080°09'0 0.0
2017-Nov-10 19:30N 25°45' W 080°09'0 0.0
2017-Nov-10 19:00N 25°45' W 080°09'0 0.0
2017-Nov-10 18:30N 25°45' W 080°09'0 0.0
2017-Nov-10 18:00N 25°45' W 080°09'0 0.0
2017-Nov-10 17:30N 25°45' W 080°09'0 0.0
2017-Nov-10 17:00N 25°45' W 080°09'0 0.0
2017-Nov-10 16:30N 25°45' W 080°09'0 0.0
2017-Nov-10 16:00N 25°45' W 080°09'0 0.0
2017-Nov-10 15:30N 25°45' W 080°09'0 0.0
2017-Nov-10 15:00N 25°45' W 080°09'0 0.0
2017-Nov-10 14:30N 25°45' W 080°09'0 0.0
2017-Nov-10 14:00N 25°45' W 080°09'0 0.0
2017-Nov-10 13:30N 25°45' W 080°09'0 0.0
2017-Nov-10 13:00N 25°45' W 080°09'0 0.0
2017-Nov-10 12:30N 25°45' W 080°09'0 0.0
2017-Nov-10 12:00N 25°45' W 080°09'0 0.0
2017-Nov-10 11:30N 25°45' W 080°09'0 0.0
2017-Nov-10 11:00N 25°45' W 080°09'0 0.0
2017-Nov-10 10:30N 25°45' W 080°09'0 0.0
2017-Nov-10 10:00N 25°45' W 080°09'0 0.0
2017-Nov-10 09:30N 25°45' W 080°09'0 0.0
2017-Nov-10 09:00N 25°45' W 080°09'0 0.0
2017-Nov-10 08:30N 25°45' W 080°09'0 0.0
2017-Nov-10 08:00N 25°45' W 080°09'0 0.0
2017-Nov-10 07:30N 25°45' W 080°09'0 0.0
2017-Nov-10 07:00N 25°45' W 080°09'0 0.0
2017-Nov-10 06:30N 25°45' W 080°09'0 0.0
2017-Nov-10 06:00N 25°45' W 080°09'0 0.0
2017-Nov-10 05:27N 25°45' W 080°09'0 0.0
2017-Nov-10 05:00N 25°45' W 080°09'0 0.0
2017-Nov-10 04:30N 25°45' W 080°09'0 0.0
2017-Nov-10 04:00N 25°45' W 080°09'0 0.0
2017-Nov-10 03:30N 25°45' W 080°09'0 0.0
2017-Nov-10 03:00N 25°45' W 080°09'0 0.0
2017-Nov-10 02:27N 25°45' W 080°09'0 0.0
2017-Nov-10 02:00N 25°45' W 080°09'0 0.0
2017-Nov-10 01:30N 25°45' W 080°09'0 0.0
2017-Nov-10 01:00N 25°45' W 080°09'0 0.0
2017-Nov-10 00:30N 25°45' W 080°09'0 0.0
2017-Nov-10 00:00N 25°45' W 080°09'0 0.0
2017-Nov-09 23:30N 25°45' W 080°09'0 0.0
2017-Nov-09 23:00N 25°45' W 080°09'0 0.0
2017-Nov-09 22:30N 25°45' W 080°09'0 0.0
2017-Nov-09 22:00N 25°45' W 080°09'0 0.0
2017-Nov-09 21:30N 25°45' W 080°09'0 0.0
2017-Nov-09 21:00N 25°45' W 080°09'0 0.0
2017-Nov-09 20:27N 25°45' W 080°09'0 0.0
2017-Nov-09 20:00N 25°45' W 080°09'0 0.0
2017-Nov-09 19:30N 25°45' W 080°09'0 0.0
2017-Nov-09 19:00N 25°45' W 080°09'0 0.0
2017-Nov-09 18:30N 25°45' W 080°09'0 0.0
2017-Nov-09 18:00N 25°45' W 080°09'0 0.0
2017-Nov-09 17:30N 25°45' W 080°09'0 0.0
2017-Nov-09 17:00N 25°45' W 080°09'0 0.0
2017-Nov-09 16:21N 25°45' W 080°09'0 0.0
2017-Nov-09 16:00N 25°45' W 080°09'0 0.0
2017-Nov-09 15:30N 25°45' W 080°09'0 0.0
2017-Nov-09 15:00N 25°45' W 080°09'0 0.0
2017-Nov-09 14:30N 25°45' W 080°09'0 0.0
2017-Nov-09 13:57N 25°45' W 080°09'0 0.0
2017-Nov-09 13:24N 25°45' W 080°09'0 0.0
2017-Nov-09 13:00N 25°45' W 080°09'0 0.0
2017-Nov-09 12:27N 25°45' W 080°09'0 0.0
2017-Nov-09 11:57N 25°45' W 080°09'0 0.0
2017-Nov-09 11:27N 25°45' W 080°09'0 0.0
2017-Nov-09 11:00N 25°45' W 080°09'0 0.0
2017-Nov-09 10:30N 25°45' W 080°09'0 0.0
2017-Nov-09 10:00N 25°45' W 080°09'0 0.0
2017-Nov-09 09:27N 25°45' W 080°09'0 0.0
2017-Nov-09 09:00N 25°45' W 080°09'0 0.0
2017-Nov-09 08:30N 25°45' W 080°09'0 0.0
2017-Nov-09 08:00N 25°45' W 080°09'0 0.0
2017-Nov-09 07:30N 25°45' W 080°09'0 0.0
2017-Nov-09 07:00N 25°45' W 080°09'0 0.0
2017-Nov-09 06:30N 25°45' W 080°09'0 0.0
2017-Nov-09 06:00N 25°45' W 080°09'0 0.0
2017-Nov-09 05:30N 25°45' W 080°09'0 0.0
2017-Nov-09 05:00N 25°45' W 080°09'0 0.0
2017-Nov-09 04:30N 25°45' W 080°09'0 0.0
2017-Nov-09 03:57N 25°45' W 080°09'0 0.0
2017-Nov-09 03:30N 25°45' W 080°09'0 0.0
2017-Nov-09 03:00N 25°45' W 080°09'0 0.0
2017-Nov-09 02:27N 25°45' W 080°09'0 0.0
2017-Nov-09 01:57N 25°45' W 080°09'0 0.0
2017-Nov-09 01:30N 25°45' W 080°09'0 0.0
2017-Nov-09 01:00N 25°45' W 080°09'0 0.0
2017-Nov-09 00:30N 25°45' W 080°09'0 0.0
2017-Nov-08 23:54N 25°45' W 080°09'0 0.0
2017-Nov-08 23:30N 25°45' W 080°09'0 0.0
2017-Nov-08 23:00N 25°45' W 080°09'0 0.0
2017-Nov-08 22:30N 25°45' W 080°09'0 0.0
2017-Nov-08 22:00N 25°45' W 080°09'0 0.0
2017-Nov-08 21:27N 25°45' W 080°09'0 0.0
2017-Nov-08 20:57N 25°45' W 080°09'0 0.0
2017-Nov-08 20:30N 25°45' W 080°09'0 0.0
2017-Nov-08 20:00N 25°45' W 080°09'0 0.0
2017-Nov-08 19:30N 25°45' W 080°09'0 0.0
2017-Nov-08 18:57N 25°45' W 080°09'0 0.4
2017-Nov-08 18:30N 25°46' W 080°09'3 5.5
2017-Nov-08 18:00N 25°46' W 080°06'815.7
2017-Nov-08 17:30N 25°54' W 080°06'816.6
2017-Nov-08 17:00N 26°02' W 080°06'5 9.5
2017-Nov-08 16:31N 26°07' W 080°07'2 3.9
2017-Nov-08 16:00N 26°09' W 080°06'3 6.1
2017-Nov-08 15:30N 26°12' W 080°06'3 5.1
2017-Nov-08 15:00N 26°14' W 080°06'2 4.0
2017-Nov-08 14:30N 26°16' W 080°05'3 6.0
2017-Nov-08 14:00N 26°19' W 080°05'  

Dump ship's entire track history